createdAt,value
2019-01-12T00:03:42.969Z,12.03
2019-01-12T00:09:01.536Z,12.67
2019-01-12T00:14:20.641Z,13.63
2019-01-12T00:19:39.283Z,14.70
2019-01-12T00:24:57.884Z,15.53
2019-01-12T00:30:16.525Z,16.02
2019-01-12T00:35:35.162Z,17.27
2019-01-12T00:40:54.091Z,17.90
2019-01-12T00:46:12.665Z,17.00
2019-01-12T00:51:31.488Z,16.20
2019-01-12T00:56:50.045Z,17.17
2019-01-12T01:02:08.740Z,19.27
2019-01-12T01:07:27.367Z,18.97
2019-01-12T01:12:46.009Z,18.57
2019-01-12T01:18:05.137Z,19.20
2019-01-12T01:23:23.944Z,19.47
2019-01-12T01:28:42.607Z,18.07
2019-01-12T01:34:01.230Z,17.67
2019-01-12T01:39:20.540Z,18.43
2019-01-12T01:44:39.298Z,18.43
2019-01-12T01:49:57.951Z,18.42
2019-01-12T01:55:16.633Z,16.30
2019-01-12T02:00:35.237Z,15.70
2019-01-12T02:05:53.933Z,18.17
2019-01-12T02:11:12.502Z,19.10
2019-01-12T02:16:31.134Z,17.63
2019-01-12T02:21:49.801Z,17.37
2019-01-12T02:27:08.429Z,16.47
2019-01-12T02:32:27.047Z,14.43
2019-01-12T02:37:45.675Z,15.80
2019-01-12T02:43:04.776Z,16.27
2019-01-12T02:48:23.379Z,15.17
2019-01-12T02:53:42.037Z,14.35
2019-01-12T02:59:00.758Z,14.10
2019-01-12T03:04:19.401Z,16.23
2019-01-12T03:09:37.981Z,14.37
2019-01-12T03:14:56.529Z,14.80
2019-01-12T03:20:16.105Z,13.90
2019-01-12T03:25:34.704Z,12.73
2019-01-12T03:30:53.278Z,12.70
2019-01-12T03:36:12.086Z,12.23
2019-01-12T03:41:30.973Z,14.07
2019-01-12T03:46:49.597Z,13.50
2019-01-12T03:52:08.217Z,13.40
2019-01-12T03:57:27.259Z,13.43
2019-01-12T04:02:45.816Z,13.80
2019-01-12T04:08:04.571Z,11.90
2019-01-12T04:13:23.198Z,12.97
2019-01-12T04:18:41.776Z,12.98
2019-01-12T04:24:00.339Z,11.33
2019-01-12T04:29:18.962Z,11.80
2019-01-12T04:34:37.449Z,11.17
2019-01-12T04:39:56.093Z,11.23
2019-01-12T04:45:16.009Z,12.10
2019-01-12T04:50:34.933Z,12.63
2019-01-12T04:55:53.678Z,13.40
2019-01-12T05:01:12.325Z,12.40
2019-01-12T05:06:31.565Z,11.43
2019-01-12T05:11:50.208Z,12.87
2019-01-12T05:17:08.757Z,10.58
2019-01-12T05:22:27.399Z,12.67
2019-01-12T05:27:46.062Z,11.97
2019-01-12T05:33:04.687Z,11.50
2019-01-12T05:38:23.324Z,12.97
2019-01-12T05:43:42.058Z,13.73
2019-01-12T05:49:00.839Z,15.13
2019-01-12T05:54:19.448Z,15.40
2019-01-12T05:59:38.031Z,15.00
2019-01-12T06:04:56.760Z,14.47
2019-01-12T06:10:15.474Z,18.77
2019-01-12T06:15:34.113Z,21.57
2019-01-12T06:20:54.509Z,21.33
2019-01-12T06:26:13.289Z,19.43
2019-01-12T06:31:32.312Z,16.97
2019-01-12T06:36:51.087Z,14.53
2019-01-12T06:42:09.834Z,11.60
2019-01-12T06:47:28.359Z,9.57
2019-01-12T06:52:46.992Z,9.73
2019-01-12T06:58:05.748Z,9.60
2019-01-12T07:03:24.319Z,10.67
2019-01-12T07:08:42.955Z,12.90
2019-01-12T07:14:01.834Z,14.60
2019-01-12T07:19:20.416Z,14.83
2019-01-12T07:24:39.050Z,15.60
2019-01-12T07:29:57.557Z,16.50
2019-01-12T07:35:16.218Z,17.60
2019-01-12T07:40:34.872Z,19.60
2019-01-12T07:45:53.767Z,19.30
2019-01-12T07:51:12.393Z,20.37
2019-01-12T07:56:31.014Z,19.03
2019-01-12T08:01:49.577Z,18.70
2019-01-12T08:07:08.195Z,17.63
2019-01-12T08:12:26.843Z,19.23
2019-01-12T08:17:45.480Z,17.23
2019-01-12T08:23:04.062Z,17.50
2019-01-12T08:28:22.714Z,16.23
2019-01-12T08:33:41.551Z,15.77
2019-01-12T08:39:00.140Z,15.80
2019-01-12T08:44:18.719Z,15.60
2019-01-12T08:49:37.417Z,14.87
2019-01-12T08:54:55.924Z,16.43
2019-01-12T09:00:19.009Z,16.43
2019-01-12T09:05:37.580Z,16.70
2019-01-12T09:10:56.207Z,17.57
2019-01-12T09:16:14.940Z,17.00
2019-01-12T09:21:33.519Z,16.77
2019-01-12T09:26:52.172Z,16.90
2019-01-12T09:32:10.819Z,18.70
2019-01-12T09:37:29.583Z,18.40
2019-01-12T09:42:48.208Z,19.33
2019-01-12T09:48:06.852Z,19.30
2019-01-12T09:53:25.650Z,18.10
2019-01-12T09:58:44.385Z,19.23
2019-01-12T10:04:03.265Z,18.40
2019-01-12T10:09:21.899Z,18.57
2019-01-12T10:14:40.621Z,19.33
2019-01-12T10:19:59.823Z,18.63
2019-01-12T10:25:18.466Z,18.60
2019-01-12T10:30:37.180Z,19.47
2019-01-12T10:35:55.890Z,19.80
2019-01-12T10:41:14.567Z,19.37
2019-01-12T10:46:33.226Z,18.87
2019-01-12T10:51:51.817Z,20.17
2019-01-12T10:57:10.488Z,20.53
2019-01-12T11:02:29.147Z,20.87
2019-01-12T11:07:47.746Z,20.02
2019-01-12T11:13:06.411Z,22.47
2019-01-12T11:18:25.165Z,22.43
2019-01-12T11:23:43.780Z,22.13
2019-01-12T11:29:02.442Z,21.63
2019-01-12T11:34:21.085Z,22.50
2019-01-12T11:39:40.283Z,21.60
2019-01-12T11:44:58.844Z,22.03
2019-01-12T11:50:17.665Z,22.00
2019-01-12T11:55:36.612Z,19.83
2019-01-12T12:00:55.258Z,19.30
2019-01-12T12:06:13.875Z,16.33
2019-01-12T12:11:32.464Z,17.47
2019-01-12T12:16:51.391Z,16.40
2019-01-12T12:22:10.072Z,16.30
2019-01-12T12:27:28.877Z,16.97
2019-01-12T12:32:47.524Z,19.50
2019-01-12T12:38:06.142Z,16.13
2019-01-12T12:43:24.783Z,17.50
2019-01-12T12:48:43.439Z,18.80
2019-01-12T12:54:01.995Z,17.30
2019-01-12T12:59:20.627Z,16.97
2019-01-12T13:04:39.182Z,16.17
2019-01-12T13:09:57.827Z,15.13
2019-01-12T13:15:16.855Z,14.10
2019-01-12T13:20:35.510Z,13.23
2019-01-12T13:25:54.234Z,13.13
2019-01-12T13:31:12.786Z,10.63
2019-01-12T13:36:31.403Z,12.33
2019-01-12T13:41:50.137Z,10.38
2019-01-12T13:47:08.797Z,10.43
2019-01-12T13:52:27.430Z,9.80
2019-01-12T13:57:47.902Z,10.17
2019-01-12T14:03:06.626Z,10.10
2019-01-12T14:08:25.448Z,9.83
2019-01-12T14:13:43.954Z,10.63
2019-01-12T14:19:02.588Z,12.07
2019-01-12T14:24:21.278Z,10.05
2019-01-12T14:29:39.954Z,10.30
2019-01-12T14:34:59.457Z,8.83
2019-01-12T14:40:19.860Z,10.30
2019-01-12T14:45:39.943Z,8.80
2019-01-12T14:50:58.602Z,8.30
2019-01-12T14:56:19.741Z,7.97
2019-01-12T15:01:39.888Z,8.17
2019-01-12T15:06:58.697Z,8.33
2019-01-12T15:12:19.516Z,7.63
2019-01-12T15:17:43.556Z,7.93
2019-01-12T15:23:03.646Z,9.77
2019-01-12T15:28:22.346Z,7.47
2019-01-12T15:33:41.525Z,8.00
2019-01-12T15:39:01.732Z,7.30
2019-01-12T15:44:23.099Z,8.70
2019-01-12T15:49:41.736Z,11.90
2019-01-12T15:55:00.265Z,10.13
2019-01-12T16:00:21.419Z,11.30
2019-01-12T16:05:40.062Z,12.20
2019-01-12T16:11:00.202Z,10.60
2019-01-12T16:16:19.002Z,10.90
2019-01-12T16:21:38.084Z,11.10
2019-01-12T16:26:56.715Z,10.50
2019-01-12T16:32:15.377Z,11.07
2019-01-12T16:37:34.077Z,9.77
2019-01-12T16:42:53.004Z,11.83
2019-01-12T16:48:12.295Z,13.50
2019-01-12T16:53:30.860Z,14.00
2019-01-12T16:58:52.310Z,17.63
2019-01-12T17:04:12.060Z,17.37
2019-01-12T17:09:30.799Z,17.67
2019-01-12T17:14:49.503Z,18.03
2019-01-12T17:20:11.084Z,17.80
2019-01-12T17:25:29.780Z,17.03
2019-01-12T17:30:48.631Z,15.63
2019-01-12T17:36:07.258Z,15.73
2019-01-12T17:41:25.874Z,14.83
2019-01-12T17:46:44.536Z,15.40
2019-01-12T17:52:05.752Z,14.40
2019-01-12T17:57:24.802Z,12.37
2019-01-12T18:02:43.418Z,12.98
2019-01-12T18:08:02.070Z,10.60
2019-01-12T18:13:20.736Z,9.03
2019-01-12T18:18:39.363Z,11.43
2019-01-12T18:23:57.983Z,10.90
2019-01-12T18:29:16.735Z,12.63
2019-01-12T18:34:35.444Z,12.93
2019-01-12T18:39:54.006Z,13.13
2019-01-12T18:45:17.365Z,12.07
2019-01-12T18:50:36.023Z,11.57
2019-01-12T18:55:54.623Z,12.20
2019-01-12T19:01:13.398Z,11.87
2019-01-12T19:06:31.924Z,11.23
2019-01-12T19:11:50.489Z,10.90
2019-01-12T19:17:09.110Z,11.37
2019-01-12T19:22:27.736Z,11.73
2019-01-12T19:27:46.497Z,11.80
2019-01-12T19:33:05.150Z,11.10
2019-01-12T19:38:23.822Z,12.60
2019-01-12T19:43:42.429Z,11.97
2019-01-12T19:49:01.066Z,12.80
2019-01-12T19:54:19.600Z,13.30
2019-01-12T19:59:38.225Z,12.10
2019-01-12T20:04:56.832Z,11.87
2019-01-12T20:10:17.087Z,11.22
2019-01-12T20:15:35.676Z,8.40
2019-01-12T20:20:54.345Z,6.10
2019-01-12T20:26:12.839Z,7.90
2019-01-12T20:31:53.840Z,10.10
2019-01-12T20:37:44.191Z,10.37
2019-01-12T20:43:17.610Z,13.60
2019-01-12T20:48:43.729Z,13.97
2019-01-12T20:54:23.421Z,14.73
2019-01-12T21:00:03.003Z,13.30
2019-01-12T21:05:24.720Z,12.80
2019-01-12T21:11:02.707Z,11.47
2019-01-12T21:16:25.024Z,12.13
2019-01-12T21:21:43.836Z,11.63
2019-01-12T21:27:02.738Z,10.27
2019-01-12T21:32:24.274Z,11.60
2019-01-12T21:37:43.113Z,11.35
2019-01-12T21:43:01.952Z,12.77
2019-01-12T21:48:23.646Z,13.20
2019-01-12T21:53:42.303Z,14.17
2019-01-12T21:59:05.584Z,14.30
2019-01-12T22:04:24.618Z,14.57
2019-01-12T22:09:43.421Z,13.90
2019-01-12T22:15:02.044Z,14.47
2019-01-12T22:20:21.071Z,13.90
2019-01-12T22:25:40.650Z,12.82
2019-01-12T22:30:59.359Z,12.33
2019-01-12T22:36:18.178Z,12.87
2019-01-12T22:41:37.133Z,10.77
2019-01-12T22:46:55.771Z,12.30
2019-01-12T22:52:14.507Z,13.57
2019-01-12T22:57:33.059Z,14.27
2019-01-12T23:02:51.750Z,14.27
2019-01-12T23:08:10.656Z,14.13
2019-01-12T23:13:29.929Z,14.10
2019-01-12T23:18:49.314Z,15.13
2019-01-12T23:24:07.867Z,14.80
2019-01-12T23:29:26.571Z,15.73
2019-01-12T23:34:45.310Z,15.83
2019-01-12T23:40:05.132Z,17.23
2019-01-12T23:45:23.765Z,14.20
2019-01-12T23:50:42.516Z,14.73
2019-01-12T23:56:01.229Z,15.57
